Portada
METAR-TAF:

METAR-TAF

Aeroports :

Hermosillo, Mèxic

latitud: 29-04N, longitud: 110-57W, altitud: 211 m

Observació

L'informe es va fer fa 57 minuts, a les 01:42 UTC
Vent 3 kt del Nord
Temperatura 24°C
Humitat 47%
Pressió 1017 hPa
Visibilitat: 16.1 km
Cel clar

METAR: MMHO 270142Z 35003KT 10SM SKC 24/12 A3002

Hora: 19:39 (02:39 UTC)

Pronòstic

L'informe es va fer fa 9 hores i 58 minuts, a les 16:41 UTC
Pronòstic vàlid del 26 a les 18 UTC al 27 a les 18 UTC
Vent 15 kt del Nord-Est
Visibilitat: 10 km
Cel clar
A partir de les 27 a les 0000 UTC
Vent 10 kt del Nord/Nord-Est
Visibilitat: 10 km
Cel clar

TAF: MMHO 261641Z 2618/2718 04015KT P6SM SKC FM270000 02010KT P6SM SKC

Observacions i pronòstics meteorològics de més de 4000 aeroports (METAR i TAF).

Les estacions disponibles són els punts grocs i vermells al mapa.

Posi el ratolí al punt desitjat per veure el nom de l'estació.

Feu clic per veure les observacions i els pronòstics meteorològics.

Per canviar el mapa: feu clic els botons verds amb una creu de color negre per apropar; al botó verd amb un guió per allunyar la imatge; o en les fletxes verdes per a mapes adjacents.


METAR-TAF: